createdAt,value
2022-11-10T00:00:34.000Z,1021.79
2022-11-10T00:01:33.000Z,1021.78
2022-11-10T00:02:33.000Z,1021.78
2022-11-10T00:03:35.000Z,1021.80
2022-11-10T00:04:33.000Z,1021.81
2022-11-10T00:05:35.000Z,1021.82
2022-11-10T00:06:33.000Z,1021.81
2022-11-10T00:07:33.000Z,1021.85
2022-11-10T00:08:33.000Z,1021.87
2022-11-10T00:09:33.000Z,1021.87
2022-11-10T00:10:48.000Z,1021.91
2022-11-10T00:11:33.000Z,1021.94
2022-11-10T00:12:33.000Z,1021.92
2022-11-10T00:13:36.000Z,1021.93
2022-11-10T00:14:38.000Z,1021.93
2022-11-10T00:15:38.000Z,1021.97
2022-11-10T00:16:38.000Z,1021.94
2022-11-10T00:17:36.000Z,1021.94
2022-11-10T00:18:33.000Z,1021.97
2022-11-10T00:19:33.000Z,1021.96
2022-11-10T00:20:33.000Z,1021.99
2022-11-10T00:21:33.000Z,1022.02
2022-11-10T00:22:34.000Z,1021.99
2022-11-10T00:23:33.000Z,1022.07
2022-11-10T00:24:33.000Z,1022.03
2022-11-10T00:25:33.000Z,1022.03
2022-11-10T00:26:33.000Z,1022.05
2022-11-10T00:27:33.000Z,1022.04
2022-11-10T00:28:33.000Z,1022.05
2022-11-10T00:29:33.000Z,1022.01
2022-11-10T00:30:35.000Z,1022.05
2022-11-10T00:31:35.000Z,1022.05
2022-11-10T00:32:32.000Z,1022.04
2022-11-10T00:33:34.000Z,1022.05
2022-11-10T00:34:32.000Z,1022.05
2022-11-10T00:35:32.000Z,1022.06
2022-11-10T00:36:33.000Z,1022.05
2022-11-10T00:37:32.000Z,1022.09
2022-11-10T00:38:32.000Z,1022.07
2022-11-10T00:39:32.000Z,1022.08
2022-11-10T00:40:32.000Z,1022.12
2022-11-10T00:41:32.000Z,1022.17
2022-11-10T00:42:32.000Z,1022.16
2022-11-10T00:43:32.000Z,1022.19
2022-11-10T00:44:32.000Z,1022.19
2022-11-10T00:45:32.000Z,1022.21
2022-11-10T00:46:32.000Z,1022.20
2022-11-10T00:47:32.000Z,1022.25
2022-11-10T00:48:33.000Z,1022.23
2022-11-10T00:49:32.000Z,1022.25
2022-11-10T00:50:32.000Z,1022.24
2022-11-10T00:51:33.000Z,1022.23
2022-11-10T00:52:32.000Z,1022.31
2022-11-10T00:53:32.000Z,1022.28
2022-11-10T00:54:32.000Z,1022.30
2022-11-10T00:55:35.000Z,1022.33
2022-11-10T00:56:32.000Z,1022.33
2022-11-10T00:57:32.000Z,1022.34
2022-11-10T00:58:32.000Z,1022.40
2022-11-10T00:59:32.000Z,1022.38
2022-11-10T01:00:32.000Z,1022.41
2022-11-10T01:01:32.000Z,1022.41
2022-11-10T01:02:32.000Z,1022.41
2022-11-10T01:03:33.000Z,1022.43
2022-11-10T01:04:32.000Z,1022.47
2022-11-10T01:05:37.000Z,1022.46
2022-11-10T01:06:32.000Z,1022.49
2022-11-10T01:07:32.000Z,1022.48
2022-11-10T01:08:33.000Z,1022.46
2022-11-10T01:09:32.000Z,1022.47
2022-11-10T01:10:32.000Z,1022.53
2022-11-10T01:11:32.000Z,1022.58
2022-11-10T01:12:32.000Z,1022.64
2022-11-10T01:13:33.000Z,1022.64
2022-11-10T01:14:32.000Z,1022.67
2022-11-10T01:15:36.000Z,1022.71
2022-11-10T01:16:32.000Z,1022.69
2022-11-10T01:17:33.000Z,1022.71
2022-11-10T01:18:33.000Z,1022.70
2022-11-10T01:19:32.000Z,1022.65
2022-11-10T01:20:33.000Z,1022.68
2022-11-10T01:21:32.000Z,1022.70
2022-11-10T01:22:33.000Z,1022.78
2022-11-10T01:23:33.000Z,1022.75
2022-11-10T01:24:33.000Z,1022.79
2022-11-10T01:25:32.000Z,1022.78
2022-11-10T01:26:32.000Z,1022.82
2022-11-10T01:27:33.000Z,1022.84
2022-11-10T01:28:34.000Z,1022.82
2022-11-10T01:29:32.000Z,1022.86
2022-11-10T01:30:32.000Z,1022.88
2022-11-10T01:31:32.000Z,1022.89
2022-11-10T01:32:33.000Z,1022.91
2022-11-10T01:33:33.000Z,1022.91
2022-11-10T01:34:33.000Z,1022.93
2022-11-10T01:35:33.000Z,1022.99
2022-11-10T01:36:33.000Z,1023.02
2022-11-10T01:37:33.000Z,1023.05
2022-11-10T01:38:35.000Z,1023.05
2022-11-10T01:39:32.000Z,1023.09
2022-11-10T01:40:33.000Z,1023.10
2022-11-10T01:41:33.000Z,1023.08
2022-11-10T01:42:43.000Z,1023.12
2022-11-10T01:43:33.000Z,1023.14
2022-11-10T01:44:33.000Z,1023.11
2022-11-10T01:45:41.000Z,1023.13
2022-11-10T01:46:33.000Z,1023.13
2022-11-10T01:47:33.000Z,1023.13
2022-11-10T01:48:42.000Z,1023.10
2022-11-10T01:49:34.000Z,1023.10
2022-11-10T01:50:37.000Z,1023.12
2022-11-10T01:51:56.000Z,1023.13
2022-11-10T01:52:33.000Z,1023.14
2022-11-10T01:53:36.000Z,1023.14
2022-11-10T01:54:43.000Z,1023.15
2022-11-10T01:55:35.000Z,1023.14
2022-11-10T01:56:40.000Z,1023.13
2022-11-10T01:57:33.000Z,1023.13
2022-11-10T01:58:36.000Z,1023.13
2022-11-10T01:59:37.000Z,1023.15
2022-11-10T02:00:33.000Z,1023.19
2022-11-10T02:01:33.000Z,1023.20
2022-11-10T02:02:42.000Z,1023.19
2022-11-10T02:03:49.000Z,1023.20
2022-11-10T02:04:33.000Z,1023.22
2022-11-10T02:05:34.000Z,1023.24
2022-11-10T02:06:40.000Z,1023.25
2022-11-10T02:07:33.000Z,1023.27
2022-11-10T02:08:34.000Z,1023.28
2022-11-10T02:09:33.000Z,1023.27
2022-11-10T02:10:32.000Z,1023.29
2022-11-10T02:11:35.000Z,1023.30
2022-11-10T02:12:35.000Z,1023.32
2022-11-10T02:13:33.000Z,1023.32
2022-11-10T02:14:33.000Z,1023.31
2022-11-10T02:15:33.000Z,1023.32
2022-11-10T02:16:34.000Z,1023.33
2022-11-10T02:17:33.000Z,1023.41
2022-11-10T02:18:32.000Z,1023.39
2022-11-10T02:19:39.000Z,1023.42
2022-11-10T02:20:33.000Z,1023.46
2022-11-10T02:21:33.000Z,1023.47
2022-11-10T02:22:32.000Z,1023.48
2022-11-10T02:23:52.000Z,1023.54
2022-11-10T02:24:33.000Z,1023.51
2022-11-10T02:25:33.000Z,1023.56
2022-11-10T02:26:34.000Z,1023.58
2022-11-10T02:27:33.000Z,1023.60
2022-11-10T02:28:36.000Z,1023.61
2022-11-10T02:29:33.000Z,1023.59
2022-11-10T02:30:33.000Z,1023.59
2022-11-10T02:31:32.000Z,1023.56
2022-11-10T02:32:33.000Z,1023.57
2022-11-10T02:33:33.000Z,1023.59
2022-11-10T02:34:33.000Z,1023.56
2022-11-10T02:35:33.000Z,1023.59
2022-11-10T02:36:33.000Z,1023.59
2022-11-10T02:37:33.000Z,1023.57
2022-11-10T02:38:33.000Z,1023.59
2022-11-10T02:39:33.000Z,1023.57
2022-11-10T02:40:33.000Z,1023.58
2022-11-10T02:41:33.000Z,1023.58
2022-11-10T02:42:33.000Z,1023.61
2022-11-10T02:43:33.000Z,1023.64
2022-11-10T02:44:33.000Z,1023.64
2022-11-10T02:45:33.000Z,1023.66
2022-11-10T02:46:36.000Z,1023.64
2022-11-10T02:47:32.000Z,1023.67
2022-11-10T02:48:32.000Z,1023.64
2022-11-10T02:49:33.000Z,1023.69
2022-11-10T02:50:33.000Z,1023.65
2022-11-10T02:51:33.000Z,1023.64
2022-11-10T02:52:33.000Z,1023.67
2022-11-10T02:53:32.000Z,1023.68
2022-11-10T02:54:32.000Z,1023.70
2022-11-10T02:55:33.000Z,1023.67
2022-11-10T02:56:34.000Z,1023.67
2022-11-10T02:57:33.000Z,1023.71
2022-11-10T02:58:32.000Z,1023.70
2022-11-10T02:59:33.000Z,1023.75
2022-11-10T03:00:32.000Z,1023.73
2022-11-10T03:01:33.000Z,1023.70
2022-11-10T03:02:33.000Z,1023.77
2022-11-10T03:03:33.000Z,1023.77
2022-11-10T03:04:32.000Z,1023.79
2022-11-10T03:05:33.000Z,1023.83
2022-11-10T03:06:32.000Z,1023.82
2022-11-10T03:07:32.000Z,1023.80
2022-11-10T03:08:33.000Z,1023.86
2022-11-10T03:09:32.000Z,1023.84
2022-11-10T03:10:32.000Z,1023.91
2022-11-10T03:11:32.000Z,1023.90
2022-11-10T03:12:32.000Z,1023.93
2022-11-10T03:13:33.000Z,1023.95
2022-11-10T03:14:32.000Z,1023.96
2022-11-10T03:15:33.000Z,1023.97
2022-11-10T03:16:32.000Z,1023.98
2022-11-10T03:17:32.000Z,1023.96
2022-11-10T03:18:32.000Z,1023.98
2022-11-10T03:19:32.000Z,1023.99
2022-11-10T03:20:33.000Z,1024.03
2022-11-10T03:21:33.000Z,1024.00
2022-11-10T03:22:33.000Z,1023.99
2022-11-10T03:23:33.000Z,1023.95
2022-11-10T03:24:32.000Z,1023.96
2022-11-10T03:25:33.000Z,1023.93
2022-11-10T03:26:33.000Z,1023.94
2022-11-10T03:27:32.000Z,1023.91
2022-11-10T03:28:33.000Z,1023.94
2022-11-10T03:29:32.000Z,1023.97
2022-11-10T03:30:33.000Z,1023.96
2022-11-10T03:31:32.000Z,1023.97
2022-11-10T03:32:32.000Z,1023.95
2022-11-10T03:33:33.000Z,1023.94
2022-11-10T03:34:33.000Z,1023.99
2022-11-10T03:35:33.000Z,1024.00
2022-11-10T03:36:33.000Z,1023.99
2022-11-10T03:37:33.000Z,1023.97
2022-11-10T03:38:33.000Z,1023.97
2022-11-10T03:39:33.000Z,1023.94
2022-11-10T03:40:33.000Z,1024.00
2022-11-10T03:41:33.000Z,1024.00
2022-11-10T03:42:33.000Z,1024.03
2022-11-10T03:43:33.000Z,1024.10
2022-11-10T03:44:33.000Z,1024.10
2022-11-10T03:45:33.000Z,1024.13
2022-11-10T03:46:33.000Z,1024.17
2022-11-10T03:47:33.000Z,1024.18
2022-11-10T03:48:33.000Z,1024.22
2022-11-10T03:49:33.000Z,1024.24
2022-11-10T03:50:33.000Z,1024.30
2022-11-10T03:51:33.000Z,1024.32
2022-11-10T03:52:33.000Z,1024.34
2022-11-10T03:53:33.000Z,1024.34
2022-11-10T03:54:33.000Z,1024.33
2022-11-10T03:55:33.000Z,1024.39
2022-11-10T03:56:33.000Z,1024.38
2022-11-10T03:57:33.000Z,1024.44
2022-11-10T03:58:33.000Z,1024.49
2022-11-10T03:59:33.000Z,1024.54
2022-11-10T04:00:33.000Z,1024.55
2022-11-10T04:01:33.000Z,1024.63
2022-11-10T04:02:33.000Z,1024.62
2022-11-10T04:03:33.000Z,1024.62
2022-11-10T04:04:38.000Z,1024.58
2022-11-10T04:05:38.000Z,1024.59
2022-11-10T04:06:38.000Z,1024.58
2022-11-10T04:07:38.000Z,1024.66
2022-11-10T04:08:38.000Z,1024.67
2022-11-10T04:09:33.000Z,1024.71
2022-11-10T04:10:36.000Z,1024.76
2022-11-10T04:11:38.000Z,1024.81
2022-11-10T04:12:38.000Z,1024.82
2022-11-10T04:13:38.000Z,1024.81
2022-11-10T04:14:38.000Z,1024.84
2022-11-10T04:15:38.000Z,1024.85
2022-11-10T04:16:32.000Z,1024.89
2022-11-10T04:17:33.000Z,1024.88
2022-11-10T04:18:33.000Z,1024.90
2022-11-10T04:19:33.000Z,1024.94
2022-11-10T04:20:32.000Z,1024.93
2022-11-10T04:21:32.000Z,1024.97
2022-11-10T04:22:38.000Z,1025.02
2022-11-10T04:23:35.000Z,1025.03
2022-11-10T04:24:33.000Z,1025.06
2022-11-10T04:25:47.000Z,1025.04
2022-11-10T04:26:36.000Z,1025.06
2022-11-10T04:27:32.000Z,1025.07
2022-11-10T04:28:33.000Z,1025.08
2022-11-10T04:29:33.000Z,1025.10
2022-11-10T04:30:33.000Z,1025.09
2022-11-10T04:31:36.000Z,1025.08
2022-11-10T04:32:33.000Z,1025.05
2022-11-10T04:33:35.000Z,1025.05
2022-11-10T04:34:32.000Z,1025.10
2022-11-10T04:35:32.000Z,1025.11
2022-11-10T04:36:34.000Z,1025.16
2022-11-10T04:37:33.000Z,1025.18
2022-11-10T04:38:33.000Z,1025.22
2022-11-10T04:39:32.000Z,1025.26
2022-11-10T04:40:33.000Z,1025.25
2022-11-10T04:41:33.000Z,1025.25
2022-11-10T04:42:33.000Z,1025.24
2022-11-10T04:43:33.000Z,1025.22
2022-11-10T04:44:33.000Z,1025.23
2022-11-10T04:45:33.000Z,1025.24
2022-11-10T04:46:38.000Z,1025.31
2022-11-10T04:47:33.000Z,1025.30
2022-11-10T04:48:34.000Z,1025.35
2022-11-10T04:49:32.000Z,1025.36
2022-11-10T04:50:33.000Z,1025.36
2022-11-10T04:51:35.000Z,1025.42
2022-11-10T04:52:32.000Z,1025.44
2022-11-10T04:53:32.000Z,1025.48
2022-11-10T04:54:33.000Z,1025.45
2022-11-10T04:55:33.000Z,1025.46
2022-11-10T04:56:33.000Z,1025.43
2022-11-10T04:57:33.000Z,1025.44
2022-11-10T04:58:32.000Z,1025.46
2022-11-10T04:59:32.000Z,1025.44
2022-11-10T05:00:33.000Z,1025.40
2022-11-10T05:01:32.000Z,1025.46
2022-11-10T05:02:32.000Z,1025.42
2022-11-10T05:03:32.000Z,1025.47
2022-11-10T05:04:33.000Z,1025.48
2022-11-10T05:05:33.000Z,1025.49
2022-11-10T05:06:33.000Z,1025.50
2022-11-10T05:07:33.000Z,1025.49
2022-11-10T05:08:33.000Z,1025.52
2022-11-10T05:09:33.000Z,1025.52
2022-11-10T05:10:34.000Z,1025.53
2022-11-10T05:11:33.000Z,1025.53
2022-11-10T05:12:33.000Z,1025.56
2022-11-10T05:13:33.000Z,1025.53
2022-11-10T05:14:32.000Z,1025.51
2022-11-10T05:15:33.000Z,1025.48
2022-11-10T05:16:33.000Z,1025.44
2022-11-10T05:17:33.000Z,1025.39
2022-11-10T05:18:33.000Z,1025.37
2022-11-10T05:19:32.000Z,1025.38
2022-11-10T05:20:33.000Z,1025.38
2022-11-10T05:21:33.000Z,1025.39
2022-11-10T05:22:33.000Z,1025.44
2022-11-10T05:23:38.000Z,1025.44
2022-11-10T05:24:33.000Z,1025.45
2022-11-10T05:25:35.000Z,1025.49
2022-11-10T05:26:33.000Z,1025.54
2022-11-10T05:27:32.000Z,1025.57
2022-11-10T05:28:33.000Z,1025.58
2022-11-10T05:29:33.000Z,1025.55
2022-11-10T05:30:33.000Z,1025.55
2022-11-10T05:31:33.000Z,1025.59
2022-11-10T05:32:35.000Z,1025.61
2022-11-10T05:33:35.000Z,1025.61
2022-11-10T05:34:33.000Z,1025.67
2022-11-10T05:35:33.000Z,1025.66
2022-11-10T05:36:33.000Z,1025.67
2022-11-10T05:37:32.000Z,1025.67
2022-11-10T05:38:33.000Z,1025.67
2022-11-10T05:39:33.000Z,1025.67
2022-11-10T05:40:33.000Z,1025.70
2022-11-10T05:41:33.000Z,1025.66
2022-11-10T05:42:33.000Z,1025.70
2022-11-10T05:43:32.000Z,1025.73
2022-11-10T05:44:33.000Z,1025.78
2022-11-10T05:45:33.000Z,1025.83
2022-11-10T05:46:33.000Z,1025.86
2022-11-10T05:47:35.000Z,1025.95
2022-11-10T05:48:33.000Z,1025.96
2022-11-10T05:49:32.000Z,1026.00
2022-11-10T05:50:33.000Z,1026.01
2022-11-10T05:51:33.000Z,1026.04
2022-11-10T05:52:34.000Z,1026.00
2022-11-10T05:53:33.000Z,1026.01
2022-11-10T05:54:33.000Z,1026.03
2022-11-10T05:55:33.000Z,1026.02
2022-11-10T05:56:33.000Z,1026.06
2022-11-10T05:57:33.000Z,1026.01
2022-11-10T05:58:33.000Z,1026.07
2022-11-10T05:59:32.000Z,1026.16
2022-11-10T06:00:33.000Z,1026.15
2022-11-10T06:01:32.000Z,1026.18
2022-11-10T06:02:33.000Z,1026.20
2022-11-10T06:03:33.000Z,1026.25
2022-11-10T06:04:33.000Z,1026.29
2022-11-10T06:05:34.000Z,1026.30
2022-11-10T06:06:32.000Z,1026.29
2022-11-10T06:07:33.000Z,1026.35
2022-11-10T06:08:33.000Z,1026.40
2022-11-10T06:09:34.000Z,1026.42
2022-11-10T06:10:34.000Z,1026.43
2022-11-10T06:11:32.000Z,1026.44
2022-11-10T06:12:33.000Z,1026.46
2022-11-10T06:13:33.000Z,1026.48
2022-11-10T06:14:33.000Z,1026.51
2022-11-10T06:15:33.000Z,1026.52
2022-11-10T06:16:32.000Z,1026.58
2022-11-10T06:17:36.000Z,1026.59
2022-11-10T06:18:33.000Z,1026.62
2022-11-10T06:19:33.000Z,1026.65
2022-11-10T06:20:33.000Z,1026.67
2022-11-10T06:21:33.000Z,1026.71
2022-11-10T06:22:33.000Z,1026.77
2022-11-10T06:23:33.000Z,1026.77
2022-11-10T06:24:32.000Z,1026.89
2022-11-10T06:25:34.000Z,1026.88
2022-11-10T06:26:33.000Z,1026.94
2022-11-10T06:27:33.000Z,1026.92
2022-11-10T06:28:33.000Z,1026.92
2022-11-10T06:29:33.000Z,1026.93
2022-11-10T06:30:35.000Z,1026.89
2022-11-10T06:31:32.000Z,1026.90
2022-11-10T06:32:33.000Z,1026.90
2022-11-10T06:33:33.000Z,1026.93
2022-11-10T06:34:32.000Z,1026.92
2022-11-10T06:35:32.000Z,1026.96
2022-11-10T06:36:33.000Z,1026.93
2022-11-10T06:37:33.000Z,1026.99
2022-11-10T06:38:33.000Z,1027.02
2022-11-10T06:39:33.000Z,1027.05
2022-11-10T06:40:33.000Z,1027.14
2022-11-10T06:41:33.000Z,1027.08
2022-11-10T06:42:33.000Z,1027.06
2022-11-10T06:43:33.000Z,1027.10
2022-11-10T06:44:33.000Z,1027.06
2022-11-10T06:45:33.000Z,1027.10
2022-11-10T06:46:33.000Z,1027.11
2022-11-10T06:47:33.000Z,1027.18
2022-11-10T06:48:32.000Z,1027.23
2022-11-10T06:49:33.000Z,1027.28
2022-11-10T06:50:33.000Z,1027.29
2022-11-10T06:51:33.000Z,1027.35
2022-11-10T06:52:33.000Z,1027.35
2022-11-10T06:53:33.000Z,1027.39
2022-11-10T06:54:33.000Z,1027.43
2022-11-10T06:55:32.000Z,1027.46
2022-11-10T06:56:33.000Z,1027.46
2022-11-10T06:57:38.000Z,1027.48
2022-11-10T06:58:33.000Z,1027.48
2022-11-10T06:59:33.000Z,1027.51
2022-11-10T07:00:33.000Z,1027.53
2022-11-10T07:01:33.000Z,1027.52
2022-11-10T07:02:33.000Z,1027.60
2022-11-10T07:03:34.000Z,1027.64
2022-11-10T07:04:33.000Z,1027.66
2022-11-10T07:05:35.000Z,1027.64
2022-11-10T07:06:32.000Z,1027.66
2022-11-10T07:07:33.000Z,1027.71
2022-11-10T07:08:33.000Z,1027.71
2022-11-10T07:09:33.000Z,1027.77
2022-11-10T07:10:33.000Z,1027.82
2022-11-10T07:11:33.000Z,1027.80
2022-11-10T07:12:33.000Z,1027.87
2022-11-10T07:13:33.000Z,1027.90
2022-11-10T07:14:33.000Z,1027.92
2022-11-10T07:15:33.000Z,1027.90
2022-11-10T07:16:33.000Z,1027.96
2022-11-10T07:17:38.000Z,1027.94
2022-11-10T07:18:35.000Z,1027.96
2022-11-10T07:19:33.000Z,1027.97
2022-11-10T07:20:33.000Z,1028.02
2022-11-10T07:21:32.000Z,1027.98
2022-11-10T07:22:32.000Z,1028.00
2022-11-10T07:23:33.000Z,1028.00
2022-11-10T07:24:33.000Z,1028.02
2022-11-10T07:25:35.000Z,1028.03
2022-11-10T07:26:33.000Z,1028.06
2022-11-10T07:27:33.000Z,1028.05
2022-11-10T07:28:33.000Z,1028.09
2022-11-10T07:29:33.000Z,1028.11
2022-11-10T07:30:34.000Z,1028.15
2022-11-10T07:31:32.000Z,1028.19
2022-11-10T07:32:32.000Z,1028.21
2022-11-10T07:33:33.000Z,1028.21
2022-11-10T07:34:32.000Z,1028.25
2022-11-10T07:35:33.000Z,1028.28
2022-11-10T07:36:33.000Z,1028.24
2022-11-10T07:37:32.000Z,1028.28
2022-11-10T07:38:33.000Z,1028.31
2022-11-10T07:39:32.000Z,1028.28
2022-11-10T07:40:33.000Z,1028.32
2022-11-10T07:41:33.000Z,1028.27
2022-11-10T07:42:38.000Z,1028.33
2022-11-10T07:43:32.000Z,1028.35
2022-11-10T07:44:33.000Z,1028.32
2022-11-10T07:45:32.000Z,1028.29
2022-11-10T07:46:33.000Z,1028.27
2022-11-10T07:47:33.000Z,1028.32
2022-11-10T07:48:33.000Z,1028.31
2022-11-10T07:49:32.000Z,1028.31
2022-11-10T07:50:33.000Z,1028.31
2022-11-10T07:51:32.000Z,1028.32
2022-11-10T07:52:33.000Z,1028.35
2022-11-10T07:53:33.000Z,1028.39
2022-11-10T07:54:33.000Z,1028.36
2022-11-10T07:55:33.000Z,1028.37
2022-11-10T07:56:33.000Z,1028.33
2022-11-10T07:57:33.000Z,1028.43
2022-11-10T07:58:34.000Z,1028.42
2022-11-10T07:59:32.000Z,1028.49
2022-11-10T08:00:34.000Z,1028.47
2022-11-10T08:01:33.000Z,1028.50
2022-11-10T08:02:33.000Z,1028.52
2022-11-10T08:03:32.000Z,1028.55
2022-11-10T08:04:32.000Z,1028.58
2022-11-10T08:05:33.000Z,1028.63
2022-11-10T08:06:33.000Z,1028.66
2022-11-10T08:07:33.000Z,1028.62
2022-11-10T08:08:32.000Z,1028.69
2022-11-10T08:09:32.000Z,1028.68
2022-11-10T08:10:33.000Z,1028.70
2022-11-10T08:11:32.000Z,1028.69
2022-11-10T08:12:32.000Z,1028.71
2022-11-10T08:13:32.000Z,1028.70
2022-11-10T08:14:33.000Z,1028.73
2022-11-10T08:15:34.000Z,1028.77
2022-11-10T08:16:32.000Z,1028.77
2022-11-10T08:17:32.000Z,1028.77
2022-11-10T08:18:33.000Z,1028.77
2022-11-10T08:19:32.000Z,1028.77
2022-11-10T08:20:33.000Z,1028.77
2022-11-10T08:21:32.000Z,1028.75
2022-11-10T08:22:32.000Z,1028.76
2022-11-10T08:23:33.000Z,1028.76
2022-11-10T08:24:32.000Z,1028.80
2022-11-10T08:25:35.000Z,1028.80
2022-11-10T08:26:33.000Z,1028.82
2022-11-10T08:27:33.000Z,1028.78
2022-11-10T08:28:32.000Z,1028.84
2022-11-10T08:29:32.000Z,1028.89
2022-11-10T08:30:34.000Z,1028.87
2022-11-10T08:31:33.000Z,1028.91
2022-11-10T08:32:32.000Z,1028.88
2022-11-10T08:33:32.000Z,1028.85
2022-11-10T08:34:32.000Z,1028.91
2022-11-10T08:35:36.000Z,1028.85
2022-11-10T08:36:32.000Z,1028.83
2022-11-10T08:37:32.000Z,1028.88
2022-11-10T08:38:33.000Z,1028.83
2022-11-10T08:39:32.000Z,1028.87
2022-11-10T08:40:33.000Z,1028.86
2022-11-10T08:41:33.000Z,1028.87
2022-11-10T08:42:33.000Z,1028.90
2022-11-10T08:43:33.000Z,1028.91
2022-11-10T08:44:33.000Z,1028.94
2022-11-10T08:45:35.000Z,1028.98
2022-11-10T08:46:32.000Z,1028.99
2022-11-10T08:47:33.000Z,1028.97
2022-11-10T08:48:33.000Z,1029.02
2022-11-10T08:49:33.000Z,1029.02
2022-11-10T08:50:33.000Z,1029.03
2022-11-10T08:51:32.000Z,1029.04
2022-11-10T08:52:32.000Z,1029.04
2022-11-10T08:53:33.000Z,1029.05
2022-11-10T08:54:32.000Z,1029.06
2022-11-10T08:55:33.000Z,1029.08
2022-11-10T08:56:33.000Z,1029.06
2022-11-10T08:57:32.000Z,1029.07
2022-11-10T08:58:33.000Z,1029.06
2022-11-10T08:59:32.000Z,1029.06
2022-11-10T09:00:33.000Z,1029.07
2022-11-10T09:01:32.000Z,1029.06
2022-11-10T09:02:32.000Z,1029.10
2022-11-10T09:03:32.000Z,1029.09
2022-11-10T09:04:32.000Z,1029.12
2022-11-10T09:05:34.000Z,1029.13
2022-11-10T09:06:32.000Z,1029.14
2022-11-10T09:07:43.000Z,1029.13
2022-11-10T09:08:33.000Z,1029.15
2022-11-10T09:09:32.000Z,1029.16
2022-11-10T09:10:36.000Z,1029.15
2022-11-10T09:11:32.000Z,1029.15
2022-11-10T09:12:32.000Z,1029.14
2022-11-10T09:13:32.000Z,1029.19
2022-11-10T09:14:32.000Z,1029.20
2022-11-10T09:15:33.000Z,1029.23
2022-11-10T09:16:32.000Z,1029.24
2022-11-10T09:17:32.000Z,1029.27
2022-11-10T09:18:32.000Z,1029.26
2022-11-10T09:19:32.000Z,1029.31
2022-11-10T09:20:35.000Z,1029.30
2022-11-10T09:21:33.000Z,1029.28
2022-11-10T09:22:34.000Z,1029.31
2022-11-10T09:23:32.000Z,1029.26
2022-11-10T09:24:32.000Z,1029.28
2022-11-10T09:25:32.000Z,1029.30
2022-11-10T09:26:33.000Z,1029.32
2022-11-10T09:27:36.000Z,1029.35
2022-11-10T09:28:32.000Z,1029.37
2022-11-10T09:29:32.000Z,1029.40
2022-11-10T09:30:32.000Z,1029.44
2022-11-10T09:31:32.000Z,1029.46
2022-11-10T09:32:33.000Z,1029.48
2022-11-10T09:33:32.000Z,1029.50
2022-11-10T09:34:32.000Z,1029.50
2022-11-10T09:35:33.000Z,1029.54
2022-11-10T09:36:32.000Z,1029.56
2022-11-10T09:37:38.000Z,1029.57
2022-11-10T09:38:34.000Z,1029.57
2022-11-10T09:39:32.000Z,1029.59
2022-11-10T09:40:57.000Z,1029.63
2022-11-10T09:41:37.000Z,1029.66
2022-11-10T09:42:37.000Z,1029.66
2022-11-10T09:43:57.000Z,1029.67
2022-11-10T09:44:37.000Z,1029.68
2022-11-10T09:45:39.000Z,1029.72
2022-11-10T09:46:43.000Z,1029.71
2022-11-10T09:47:43.000Z,1029.75
2022-11-10T09:48:48.000Z,1029.72
2022-11-10T09:49:52.000Z,1029.78
2022-11-10T09:50:55.000Z,1029.77
2022-11-10T09:51:38.000Z,1029.77
2022-11-10T09:52:36.000Z,1029.78
2022-11-10T09:53:52.000Z,1029.75
2022-11-10T09:54:41.000Z,1029.76
2022-11-10T09:55:53.000Z,1029.75
2022-11-10T09:56:35.000Z,1029.75
2022-11-10T09:57:32.000Z,1029.72
2022-11-10T09:58:39.000Z,1029.73
2022-11-10T09:59:33.000Z,1029.69
2022-11-10T10:00:34.000Z,1029.68
2022-11-10T10:01:55.000Z,1029.73
2022-11-10T10:02:38.000Z,1029.68
2022-11-10T10:03:36.000Z,1029.66
2022-11-10T10:04:42.000Z,1029.72
2022-11-10T10:05:42.000Z,1029.72
2022-11-10T10:06:38.000Z,1029.71
2022-11-10T10:07:55.000Z,1029.70
2022-11-10T10:08:42.000Z,1029.69
2022-11-10T10:10:08.000Z,1029.68
2022-11-10T10:10:50.000Z,1029.66
2022-11-10T10:11:46.000Z,1029.72
2022-11-10T10:12:43.000Z,1029.66
2022-11-10T10:13:43.000Z,1029.68
2022-11-10T10:14:47.000Z,1029.66
2022-11-10T10:15:44.000Z,1029.65
2022-11-10T10:16:51.000Z,1029.63
2022-11-10T10:17:46.000Z,1029.62
2022-11-10T10:18:44.000Z,1029.62
2022-11-10T10:19:43.000Z,1029.57
2022-11-10T10:20:42.000Z,1029.57
2022-11-10T10:21:56.000Z,1029.60
2022-11-10T10:22:42.000Z,1029.60
2022-11-10T10:23:43.000Z,1029.56
2022-11-10T10:24:36.000Z,1029.55
2022-11-10T10:25:35.000Z,1029.56
2022-11-10T10:26:38.000Z,1029.56
2022-11-10T10:27:33.000Z,1029.58
2022-11-10T10:28:49.000Z,1029.61
2022-11-10T10:29:42.000Z,1029.62
2022-11-10T10:30:32.000Z,1029.60
2022-11-10T10:31:38.000Z,1029.64
2022-11-10T10:32:33.000Z,1029.64
2022-11-10T10:33:32.000Z,1029.67
2022-11-10T10:34:36.000Z,1029.67
2022-11-10T10:35:33.000Z,1029.68
2022-11-10T10:36:32.000Z,1029.74
2022-11-10T10:37:42.000Z,1029.75
2022-11-10T10:38:38.000Z,1029.74
2022-11-10T10:39:43.000Z,1029.72
2022-11-10T10:40:32.000Z,1029.70
2022-11-10T10:41:35.000Z,1029.63
2022-11-10T10:42:34.000Z,1029.60
2022-11-10T10:43:32.000Z,1029.54
2022-11-10T10:44:32.000Z,1029.58
2022-11-10T10:45:34.000Z,1029.58
2022-11-10T10:46:45.000Z,1029.57
2022-11-10T10:47:36.000Z,1029.56
2022-11-10T10:48:32.000Z,1029.56
2022-11-10T10:49:32.000Z,1029.58
2022-11-10T10:50:40.000Z,1029.59
2022-11-10T10:51:32.000Z,1029.58
2022-11-10T10:52:32.000Z,1029.56
2022-11-10T10:53:44.000Z,1029.59
2022-11-10T10:54:34.000Z,1029.56
2022-11-10T10:55:34.000Z,1029.51
2022-11-10T10:56:32.000Z,1029.51
2022-11-10T10:57:32.000Z,1029.54
2022-11-10T10:58:48.000Z,1029.52
2022-11-10T10:59:32.000Z,1029.52
2022-11-10T11:00:41.000Z,1029.54
2022-11-10T11:01:36.000Z,1029.48
2022-11-10T11:02:32.000Z,1029.46
2022-11-10T11:03:40.000Z,1029.43
2022-11-10T11:04:34.000Z,1029.41
2022-11-10T11:05:32.000Z,1029.40
2022-11-10T11:06:33.000Z,1029.41
2022-11-10T11:07:32.000Z,1029.40
2022-11-10T11:08:32.000Z,1029.41
2022-11-10T11:09:38.000Z,1029.49
2022-11-10T11:10:33.000Z,1029.46
2022-11-10T11:11:41.000Z,1029.49
2022-11-10T11:12:32.000Z,1029.53
2022-11-10T11:13:32.000Z,1029.53
2022-11-10T11:14:32.000Z,1029.52
2022-11-10T11:15:32.000Z,1029.52
2022-11-10T11:16:45.000Z,1029.50
2022-11-10T11:17:33.000Z,1029.46
2022-11-10T11:18:35.000Z,1029.42
2022-11-10T11:19:35.000Z,1029.36
2022-11-10T11:20:50.000Z,1029.37
2022-11-10T11:21:40.000Z,1029.37
2022-11-10T11:22:43.000Z,1029.40
2022-11-10T11:23:48.000Z,1029.39
2022-11-10T11:24:57.000Z,1029.40
2022-11-10T11:25:37.000Z,1029.43
2022-11-10T11:26:42.000Z,1029.46
2022-11-10T11:27:51.000Z,1029.44
2022-11-10T11:28:59.000Z,1029.43
2022-11-10T11:29:42.000Z,1029.39
2022-11-10T11:30:42.000Z,1029.35
2022-11-10T11:31:47.000Z,1029.37
2022-11-10T11:32:52.000Z,1029.40
2022-11-10T11:33:42.000Z,1029.42
2022-11-10T11:34:46.000Z,1029.41
2022-11-10T11:35:51.000Z,1029.44
2022-11-10T11:36:51.000Z,1029.44
2022-11-10T11:37:42.000Z,1029.44
2022-11-10T11:38:55.000Z,1029.45
2022-11-10T11:39:57.000Z,1029.43
2022-11-10T11:40:52.000Z,1029.44
2022-11-10T11:41:40.000Z,1029.42
2022-11-10T11:42:41.000Z,1029.42
2022-11-10T11:43:52.000Z,1029.41
2022-11-10T11:44:52.000Z,1029.44
2022-11-10T11:45:47.000Z,1029.40
2022-11-10T11:46:55.000Z,1029.39
2022-11-10T11:47:59.000Z,1029.43
2022-11-10T11:48:49.000Z,1029.40
2022-11-10T11:49:43.000Z,1029.40
2022-11-10T11:50:55.000Z,1029.40
2022-11-10T11:51:52.000Z,1029.41
2022-11-10T11:53:10.000Z,1029.43
2022-11-10T11:53:59.000Z,1029.44
2022-11-10T11:54:43.000Z,1029.40
2022-11-10T11:55:56.000Z,1029.38
2022-11-10T11:56:43.000Z,1029.40
2022-11-10T11:57:42.000Z,1029.39
2022-11-10T11:58:44.000Z,1029.41
2022-11-10T11:59:50.000Z,1029.42
2022-11-10T12:00:42.000Z,1029.42
2022-11-10T12:01:53.000Z,1029.42
2022-11-10T12:02:42.000Z,1029.39
2022-11-10T12:03:47.000Z,1029.42
2022-11-10T12:04:42.000Z,1029.42
2022-11-10T12:05:54.000Z,1029.43